Terminal Aerodrome Forecast
Issued by NWS

Home | Current Version | Previous Version | Text Only | Print | Product List | Glossary On
Versions: 1 2 3 4 5 6 7 8 9 10 11 12 13 14
000
FTUS43 KGLD 261120
TAFMCK
TAF
KMCK 261120Z 2612/2712 VRB03KT P6SM SKC
     FM261700 17011KT P6SM SKC
     FM262200 16015G23KT P6SM SKC
     FM270300 15010KT P6SM SKC
     FM270500 16010KT P6SM FEW250 WS020/17040KT=

USA.gov is the U.S. government's official web portal to all federal, state and local government web resources and services.